createdAt,value
2017-12-31T00:00:49.761Z,1.23
2017-12-31T00:03:19.114Z,2.40
2017-12-31T00:05:47.494Z,1.50
2017-12-31T00:08:15.852Z,1.90
2017-12-31T00:10:44.206Z,1.10
2017-12-31T00:13:13.323Z,1.33
2017-12-31T00:15:41.653Z,2.20
2017-12-31T00:18:09.987Z,1.20
2017-12-31T00:20:38.409Z,2.33
2017-12-31T00:23:06.752Z,1.47
2017-12-31T00:25:36.796Z,1.33
2017-12-31T00:28:05.152Z,1.60
2017-12-31T00:30:33.544Z,2.07
2017-12-31T00:33:01.911Z,1.20
2017-12-31T00:35:30.253Z,2.20
2017-12-31T00:37:58.583Z,1.13
2017-12-31T00:40:26.954Z,3.87
2017-12-31T00:42:55.304Z,2.43
2017-12-31T00:45:23.711Z,4.07
2017-12-31T00:47:52.060Z,8.63
2017-12-31T00:50:20.636Z,5.60
2017-12-31T00:52:49.841Z,5.53
2017-12-31T00:55:18.440Z,4.47
2017-12-31T00:57:46.824Z,1.53
2017-12-31T01:00:15.219Z,1.87
2017-12-31T01:02:43.657Z,2.30
2017-12-31T01:05:12.135Z,1.43
2017-12-31T01:07:40.467Z,1.60
2017-12-31T01:10:09.580Z,1.10
2017-12-31T01:12:37.933Z,2.70
2017-12-31T01:15:07.131Z,1.70
2017-12-31T01:17:35.640Z,2.07
2017-12-31T01:20:04.065Z,3.57
2017-12-31T01:22:32.422Z,3.67
2017-12-31T01:25:00.812Z,2.67
2017-12-31T01:27:29.138Z,2.97
2017-12-31T01:29:57.589Z,2.17
2017-12-31T01:32:25.933Z,1.97
2017-12-31T01:34:54.288Z,3.40
2017-12-31T01:37:22.620Z,2.23
2017-12-31T01:39:51.742Z,1.93
2017-12-31T01:42:20.847Z,2.20
2017-12-31T01:44:49.800Z,2.13
2017-12-31T01:47:18.561Z,4.93
2017-12-31T01:49:46.946Z,2.10
2017-12-31T01:52:15.284Z,4.10
2017-12-31T01:54:43.696Z,5.43
2017-12-31T01:57:12.046Z,2.07
2017-12-31T01:59:40.425Z,5.63
2017-12-31T02:02:08.448Z,3.63
2017-12-31T02:04:36.793Z,4.90
2017-12-31T02:07:05.115Z,6.67
2017-12-31T02:09:34.348Z,4.23
2017-12-31T02:12:02.687Z,9.30
2017-12-31T02:14:31.869Z,6.37
2017-12-31T02:17:00.209Z,3.50
2017-12-31T02:19:28.605Z,4.20
2017-12-31T02:21:56.972Z,5.70
2017-12-31T02:24:25.355Z,6.27
2017-12-31T02:26:53.693Z,4.37
2017-12-31T02:29:22.031Z,6.00
2017-12-31T02:31:51.158Z,7.10
2017-12-31T02:34:19.494Z,5.17
2017-12-31T02:36:47.839Z,5.07
2017-12-31T02:39:16.234Z,9.23
2017-12-31T02:41:44.563Z,4.50
2017-12-31T02:44:13.015Z,6.47
2017-12-31T02:46:41.352Z,9.93
2017-12-31T02:49:09.764Z,7.97
2017-12-31T02:51:38.102Z,7.57
2017-12-31T02:54:06.517Z,5.87
2017-12-31T02:56:34.856Z,7.47
2017-12-31T02:59:03.204Z,11.37
2017-12-31T03:01:32.310Z,9.37
2017-12-31T03:04:00.748Z,9.00
2017-12-31T03:06:29.095Z,10.33
2017-12-31T03:08:57.522Z,10.43
2017-12-31T03:11:26.616Z,6.57
2017-12-31T03:13:55.847Z,4.87
2017-12-31T03:16:24.191Z,5.63
2017-12-31T03:18:53.361Z,6.23
2017-12-31T03:21:21.696Z,9.13
2017-12-31T03:23:50.040Z,6.13
2017-12-31T03:26:19.189Z,6.60
2017-12-31T03:28:47.576Z,10.27
2017-12-31T03:31:16.679Z,5.87
2017-12-31T03:33:45.045Z,6.17
2017-12-31T03:36:13.367Z,7.10
2017-12-31T03:38:42.488Z,6.17
2017-12-31T03:41:10.807Z,9.87
2017-12-31T03:43:39.258Z,7.17
2017-12-31T03:46:07.613Z,6.90
2017-12-31T03:48:35.942Z,6.27
2017-12-31T03:51:04.283Z,9.00
2017-12-31T03:53:32.708Z,8.43
2017-12-31T03:56:01.048Z,8.07
2017-12-31T03:58:29.409Z,6.53
2017-12-31T04:00:57.740Z,7.10
2017-12-31T04:03:26.086Z,6.33
2017-12-31T04:05:54.441Z,8.67
2017-12-31T04:08:22.457Z,6.47
2017-12-31T04:10:50.796Z,7.50
2017-12-31T04:13:19.512Z,5.33
2017-12-31T04:15:47.844Z,8.03
2017-12-31T04:18:16.338Z,6.40
2017-12-31T04:20:44.667Z,4.07
2017-12-31T04:23:13.767Z,7.43
2017-12-31T04:25:42.876Z,4.00
2017-12-31T04:28:11.236Z,3.27
2017-12-31T04:30:40.343Z,3.27
2017-12-31T04:33:09.500Z,7.63
2017-12-31T04:35:37.839Z,7.60
2017-12-31T04:38:06.245Z,8.50
2017-12-31T04:40:34.570Z,6.00
2017-12-31T04:43:03.025Z,3.47
2017-12-31T04:45:31.352Z,4.33
2017-12-31T04:47:59.708Z,4.10
2017-12-31T04:50:28.047Z,5.00
2017-12-31T04:52:56.407Z,5.73
2017-12-31T04:55:24.749Z,4.87
2017-12-31T04:57:53.111Z,5.00
2017-12-31T05:00:21.447Z,5.40
2017-12-31T05:02:50.857Z,2.43
2017-12-31T05:05:19.243Z,6.67
2017-12-31T05:07:48.783Z,7.60
2017-12-31T05:10:17.172Z,5.40
2017-12-31T05:12:45.595Z,4.57
2017-12-31T05:15:13.921Z,4.13
2017-12-31T05:17:42.360Z,4.03
2017-12-31T05:20:10.704Z,2.93
2017-12-31T05:22:39.153Z,4.73
2017-12-31T05:25:07.505Z,6.23
2017-12-31T05:27:36.621Z,5.03
2017-12-31T05:30:04.980Z,3.90
2017-12-31T05:32:34.185Z,6.20
2017-12-31T05:35:02.546Z,3.07
2017-12-31T05:37:31.643Z,3.70
2017-12-31T05:40:00.751Z,2.67
2017-12-31T05:42:29.108Z,2.53
2017-12-31T05:44:58.225Z,4.17
2017-12-31T05:47:26.669Z,2.57
2017-12-31T05:49:55.034Z,3.07
2017-12-31T05:52:24.327Z,2.60
2017-12-31T05:54:52.674Z,5.70
2017-12-31T05:57:22.091Z,4.27
2017-12-31T05:59:51.285Z,4.93
2017-12-31T06:02:20.707Z,4.07
2017-12-31T06:04:50.823Z,5.57
2017-12-31T06:07:19.389Z,4.10
2017-12-31T06:09:47.733Z,2.97
2017-12-31T06:12:17.109Z,2.87
2017-12-31T06:14:45.440Z,4.20
2017-12-31T06:17:13.774Z,2.53
2017-12-31T06:19:42.920Z,8.43
2017-12-31T06:22:11.317Z,4.30
2017-12-31T06:24:39.660Z,3.80
2017-12-31T06:27:08.062Z,2.73
2017-12-31T06:29:36.395Z,4.23
2017-12-31T06:32:05.734Z,3.73
2017-12-31T06:34:34.099Z,5.77
2017-12-31T06:37:02.424Z,3.60
2017-12-31T06:39:31.515Z,4.27
2017-12-31T06:42:00.720Z,6.43
2017-12-31T06:44:29.819Z,4.73
2017-12-31T06:46:59.000Z,5.80
2017-12-31T06:49:27.339Z,3.93
2017-12-31T06:51:56.515Z,2.27
2017-12-31T06:54:24.865Z,2.90
2017-12-31T06:56:54.022Z,3.57
2017-12-31T06:59:24.187Z,3.57
2017-12-31T07:01:52.532Z,5.13
2017-12-31T07:04:20.878Z,2.70
2017-12-31T07:06:50.251Z,5.07
2017-12-31T07:09:18.674Z,3.30
2017-12-31T07:11:47.047Z,5.13
2017-12-31T07:14:15.385Z,5.33
2017-12-31T07:16:43.835Z,5.17
2017-12-31T07:19:12.939Z,5.83
2017-12-31T07:21:42.025Z,7.20
2017-12-31T07:24:11.154Z,4.23
2017-12-31T07:26:39.577Z,4.33
2017-12-31T07:29:07.938Z,8.47
2017-12-31T07:31:36.272Z,4.73
2017-12-31T07:34:05.356Z,8.77
2017-12-31T07:36:34.528Z,4.00
2017-12-31T07:39:02.657Z,5.97
2017-12-31T07:41:31.044Z,5.17
2017-12-31T07:43:59.382Z,4.43
2017-12-31T07:46:28.570Z,3.87
2017-12-31T07:48:57.685Z,6.53
2017-12-31T07:51:26.114Z,6.00
2017-12-31T07:53:55.231Z,8.30
2017-12-31T07:56:24.349Z,3.70
2017-12-31T07:58:52.678Z,6.30
2017-12-31T08:01:21.892Z,6.00
2017-12-31T08:03:50.223Z,4.30
2017-12-31T08:06:19.438Z,7.10
2017-12-31T08:08:47.771Z,4.80
2017-12-31T08:11:16.920Z,3.50
2017-12-31T08:13:45.260Z,4.23
2017-12-31T08:16:13.716Z,5.27
2017-12-31T08:18:42.865Z,3.10
2017-12-31T08:21:11.383Z,3.37
2017-12-31T08:23:40.483Z,5.70
2017-12-31T08:26:09.603Z,5.20
2017-12-31T08:28:37.954Z,4.77
2017-12-31T08:31:07.071Z,3.07
2017-12-31T08:33:35.401Z,4.80
2017-12-31T08:36:03.777Z,4.20
2017-12-31T08:38:32.127Z,5.47
2017-12-31T08:41:00.463Z,4.10
2017-12-31T08:43:29.558Z,3.27
2017-12-31T08:45:58.670Z,5.30
2017-12-31T08:48:27.009Z,3.30
2017-12-31T08:50:55.375Z,6.33
2017-12-31T08:53:23.717Z,3.20
2017-12-31T08:55:52.048Z,4.90
2017-12-31T08:58:21.930Z,4.53
2017-12-31T09:00:50.270Z,5.63
2017-12-31T09:03:18.758Z,2.77
2017-12-31T09:05:47.098Z,3.83
2017-12-31T09:08:16.195Z,2.93
2017-12-31T09:10:45.327Z,4.03
2017-12-31T09:13:13.332Z,4.70
2017-12-31T09:15:41.673Z,2.37
2017-12-31T09:18:10.030Z,4.93
2017-12-31T09:20:39.130Z,6.10
2017-12-31T09:23:07.444Z,4.20
2017-12-31T09:25:36.577Z,2.17
2017-12-31T09:28:05.681Z,5.37
2017-12-31T09:30:34.775Z,5.30
2017-12-31T09:33:03.889Z,3.60
2017-12-31T09:35:32.214Z,3.00
2017-12-31T09:38:00.559Z,4.33
2017-12-31T09:40:28.891Z,8.77
2017-12-31T09:42:58.019Z,4.30
2017-12-31T09:45:26.358Z,5.23
2017-12-31T09:47:54.698Z,4.10
2017-12-31T09:50:23.053Z,3.17
2017-12-31T09:52:51.780Z,7.20
2017-12-31T09:55:20.617Z,4.40
2017-12-31T09:57:49.533Z,5.17
2017-12-31T10:00:17.864Z,4.17
2017-12-31T10:02:46.998Z,5.57
2017-12-31T10:05:15.329Z,4.17
2017-12-31T10:07:44.431Z,3.80
2017-12-31T10:10:13.559Z,3.03
2017-12-31T10:12:41.937Z,4.80
2017-12-31T10:15:10.274Z,4.80
2017-12-31T10:17:39.395Z,5.40
2017-12-31T10:20:07.731Z,5.30
2017-12-31T10:22:37.062Z,3.17
2017-12-31T10:25:05.391Z,6.20
2017-12-31T10:27:33.764Z,4.03
2017-12-31T10:30:02.114Z,4.97
2017-12-31T10:32:30.439Z,5.37
2017-12-31T10:34:58.792Z,5.07
2017-12-31T10:37:27.133Z,4.93
2017-12-31T10:39:55.491Z,3.57
2017-12-31T10:42:25.576Z,3.90
2017-12-31T10:44:53.920Z,3.83
2017-12-31T10:47:22.264Z,4.33
2017-12-31T10:49:52.425Z,3.03
2017-12-31T10:52:21.775Z,4.33
2017-12-31T10:54:50.924Z,6.00
2017-12-31T10:57:19.952Z,4.63
2017-12-31T10:59:48.302Z,6.27
2017-12-31T11:02:17.615Z,6.20
2017-12-31T12:26:44.196Z,3.90
2017-12-31T12:29:12.546Z,2.23
2017-12-31T12:31:40.923Z,2.80
2017-12-31T12:34:09.092Z,30.93
2017-12-31T12:36:37.452Z,7.50
2017-12-31T12:39:05.461Z,14.77
2017-12-31T12:41:34.593Z,19.10
2017-12-31T12:44:02.932Z,7.40
2017-12-31T12:46:32.042Z,32.30
2017-12-31T12:49:00.390Z,18.93
2017-12-31T12:51:29.499Z,61.90
2017-12-31T12:53:58.637Z,64.00
2017-12-31T12:56:26.982Z,100.03
2017-12-31T12:58:55.338Z,64.37
2017-12-31T13:01:24.520Z,53.27
2017-12-31T13:03:52.860Z,30.33
2017-12-31T13:06:21.729Z,77.20
2017-12-31T13:08:50.911Z,30.90
2017-12-31T13:11:20.016Z,40.30
2017-12-31T13:13:48.375Z,20.63
2017-12-31T13:16:17.468Z,8.57
2017-12-31T13:18:46.612Z,7.13
2017-12-31T13:21:15.890Z,4.63
2017-12-31T13:23:44.299Z,4.57
2017-12-31T13:26:12.651Z,3.00
2017-12-31T13:28:40.995Z,3.53
2017-12-31T13:31:10.111Z,3.17
2017-12-31T13:33:38.478Z,6.30
2017-12-31T13:36:06.808Z,4.00
2017-12-31T13:38:35.224Z,3.90
2017-12-31T13:41:04.344Z,3.70
2017-12-31T13:43:32.716Z,4.33
2017-12-31T13:46:01.258Z,5.10
2017-12-31T13:48:29.624Z,3.53
2017-12-31T13:50:57.963Z,3.13
2017-12-31T13:53:26.340Z,4.53
2017-12-31T13:55:54.666Z,6.93
2017-12-31T13:58:23.900Z,17.50
2017-12-31T14:00:52.241Z,39.87
2017-12-31T14:03:21.442Z,44.97
2017-12-31T14:05:51.158Z,58.33
2017-12-31T14:08:20.526Z,66.23
2017-12-31T14:10:48.954Z,39.47
2017-12-31T14:13:17.292Z,32.97
2017-12-31T14:15:45.644Z,30.83
2017-12-31T14:18:14.049Z,49.53
2017-12-31T14:20:42.397Z,56.70
2017-12-31T14:23:10.870Z,37.30
2017-12-31T14:25:39.244Z,35.97
2017-12-31T14:28:07.643Z,23.90
2017-12-31T14:30:35.796Z,11.57
2017-12-31T14:33:04.240Z,12.37
2017-12-31T14:35:32.582Z,11.20
2017-12-31T14:38:00.957Z,15.00
2017-12-31T14:40:29.317Z,13.73
2017-12-31T14:42:57.787Z,5.37
2017-12-31T14:45:26.131Z,7.27
2017-12-31T14:47:54.583Z,30.87
2017-12-31T14:50:23.697Z,38.00
2017-12-31T14:52:52.895Z,31.97
2017-12-31T14:55:21.247Z,25.13
2017-12-31T14:57:50.249Z,23.27
2017-12-31T15:00:20.301Z,23.60
2017-12-31T15:02:49.005Z,22.40
2017-12-31T15:05:17.364Z,20.63
2017-12-31T15:07:45.772Z,10.20
2017-12-31T15:10:14.124Z,10.23
2017-12-31T15:12:43.345Z,5.73
2017-12-31T15:15:11.701Z,6.83
2017-12-31T15:17:40.127Z,8.23
2017-12-31T15:20:09.259Z,8.17
2017-12-31T15:22:37.777Z,4.97
2017-12-31T15:25:06.117Z,4.57
2017-12-31T15:27:34.438Z,5.67
2017-12-31T15:30:02.793Z,5.90
2017-12-31T15:32:31.181Z,4.73
2017-12-31T15:34:59.547Z,6.70
2017-12-31T15:37:27.936Z,9.27
2017-12-31T15:39:56.287Z,5.37
2017-12-31T15:42:25.724Z,8.47
2017-12-31T15:44:54.064Z,7.83
2017-12-31T15:47:22.218Z,6.37
2017-12-31T15:49:50.566Z,7.10
2017-12-31T15:52:21.424Z,6.73
2017-12-31T15:54:50.401Z,6.17
2017-12-31T15:57:20.398Z,10.50
2017-12-31T15:59:48.992Z,9.77
2017-12-31T16:02:19.898Z,10.40
2017-12-31T16:04:48.248Z,13.37
2017-12-31T16:07:16.645Z,11.17
2017-12-31T16:09:45.009Z,11.97
2017-12-31T16:12:14.370Z,9.70
2017-12-31T16:14:43.492Z,9.90
2017-12-31T16:17:11.913Z,10.57
2017-12-31T16:19:40.264Z,8.37
2017-12-31T16:22:09.486Z,7.43
2017-12-31T16:24:37.841Z,5.73
2017-12-31T16:27:06.222Z,9.70
2017-12-31T16:29:34.561Z,8.40
2017-12-31T16:32:03.217Z,9.27
2017-12-31T16:34:32.327Z,6.10
2017-12-31T16:37:00.659Z,5.57
2017-12-31T16:39:29.014Z,7.27
2017-12-31T16:41:57.458Z,6.73
2017-12-31T16:44:26.575Z,4.40
2017-12-31T16:46:54.898Z,3.73
2017-12-31T16:49:23.231Z,2.30
2017-12-31T16:51:51.894Z,3.70
2017-12-31T16:54:21.333Z,6.40
2017-12-31T16:56:49.732Z,3.47
2017-12-31T16:59:18.072Z,3.40
2017-12-31T17:01:46.481Z,2.90
2017-12-31T17:04:14.647Z,1.60
2017-12-31T17:06:43.035Z,2.73
2017-12-31T17:09:11.373Z,2.90
2017-12-31T17:11:39.788Z,2.70
2017-12-31T17:14:08.128Z,3.63
2017-12-31T17:16:36.527Z,3.17
2017-12-31T17:19:04.855Z,2.00
2017-12-31T17:21:33.229Z,1.60
2017-12-31T17:24:02.328Z,1.83
2017-12-31T17:26:30.744Z,2.70
2017-12-31T17:28:59.108Z,3.20
2017-12-31T17:31:27.451Z,3.47
2017-12-31T17:33:56.577Z,2.47
2017-12-31T17:36:24.979Z,4.50
2017-12-31T17:38:54.091Z,2.67
2017-12-31T17:41:22.463Z,3.90
2017-12-31T17:43:51.606Z,4.30
2017-12-31T17:46:20.077Z,3.93
2017-12-31T17:48:49.727Z,5.00
2017-12-31T17:51:18.083Z,3.07
2017-12-31T17:53:46.458Z,3.40
2017-12-31T17:56:14.865Z,3.93
2017-12-31T17:58:43.205Z,5.03
2017-12-31T18:01:11.670Z,4.03
2017-12-31T18:03:40.756Z,3.10
2017-12-31T18:06:09.951Z,3.90
2017-12-31T18:08:39.073Z,4.43
2017-12-31T18:11:07.527Z,5.17
2017-12-31T18:13:36.626Z,4.13
2017-12-31T18:16:04.963Z,2.87
2017-12-31T18:18:33.333Z,3.17
2017-12-31T18:21:01.708Z,2.37
2017-12-31T18:23:30.048Z,5.80
2017-12-31T18:25:58.465Z,2.43
2017-12-31T18:28:26.811Z,5.53
2017-12-31T18:30:55.205Z,3.07
2017-12-31T18:33:23.576Z,7.23
2017-12-31T18:35:52.005Z,3.40
2017-12-31T18:38:21.981Z,3.67
2017-12-31T18:40:50.557Z,3.00
2017-12-31T18:43:19.297Z,4.87
2017-12-31T18:45:48.459Z,3.00
2017-12-31T18:48:16.798Z,3.80
2017-12-31T18:50:45.181Z,4.90
2017-12-31T18:53:13.520Z,2.40
2017-12-31T18:55:42.709Z,3.10
2017-12-31T18:58:11.827Z,3.83
2017-12-31T19:00:40.248Z,3.27
2017-12-31T19:03:08.408Z,5.47
2017-12-31T19:05:36.835Z,3.43
2017-12-31T19:08:05.921Z,3.30
2017-12-31T19:10:35.088Z,2.60
2017-12-31T19:13:03.430Z,3.50
2017-12-31T19:15:31.812Z,3.40
2017-12-31T19:18:00.164Z,3.40
2017-12-31T19:20:28.600Z,3.73
2017-12-31T19:22:56.941Z,3.53
2017-12-31T19:25:25.278Z,3.20
2017-12-31T19:27:54.402Z,2.90
2017-12-31T19:30:22.824Z,3.53
2017-12-31T19:32:51.863Z,3.77
2017-12-31T19:35:20.237Z,3.77
2017-12-31T19:37:50.004Z,4.07
2017-12-31T19:40:18.368Z,3.27
2017-12-31T19:42:46.712Z,3.87
2017-12-31T19:45:15.041Z,4.80
2017-12-31T19:47:43.420Z,2.97
2017-12-31T19:50:11.784Z,5.00
2017-12-31T19:52:40.132Z,4.80
2017-12-31T19:55:08.476Z,2.80
2017-12-31T19:57:37.566Z,5.80
2017-12-31T20:00:06.699Z,5.30
2017-12-31T20:02:35.028Z,3.20
2017-12-31T20:05:04.121Z,3.40
2017-12-31T20:07:33.253Z,4.20
2017-12-31T20:10:01.588Z,2.80
2017-12-31T20:12:29.949Z,3.33
2017-12-31T20:14:58.114Z,4.17
2017-12-31T20:17:26.467Z,3.87
2017-12-31T20:19:54.814Z,4.10
2017-12-31T20:22:23.128Z,4.60
2017-12-31T20:24:52.024Z,4.03
2017-12-31T20:27:20.581Z,4.20
2017-12-31T20:29:49.214Z,3.63
2017-12-31T20:32:17.653Z,5.20
2017-12-31T20:34:45.982Z,3.57
2017-12-31T20:37:15.088Z,4.30
2017-12-31T20:39:44.204Z,3.20
2017-12-31T20:42:12.555Z,4.03
2017-12-31T20:44:41.661Z,2.97
2017-12-31T20:47:10.009Z,6.30
2017-12-31T20:49:38.172Z,5.37
2017-12-31T20:52:06.541Z,7.53
2017-12-31T20:54:34.875Z,5.07
2017-12-31T20:57:03.216Z,4.83
2017-12-31T20:59:32.327Z,7.37
2017-12-31T21:02:00.722Z,3.57
2017-12-31T21:04:29.066Z,6.03
2017-12-31T21:06:58.172Z,4.00
2017-12-31T21:09:27.291Z,6.37
2017-12-31T21:11:55.661Z,5.00
2017-12-31T21:14:23.997Z,5.57
2017-12-31T21:16:52.419Z,2.30
2017-12-31T21:19:20.776Z,3.13
2017-12-31T21:21:49.883Z,4.23
2017-12-31T21:24:18.248Z,3.37
2017-12-31T21:26:46.633Z,4.93
2017-12-31T21:29:14.972Z,3.43
2017-12-31T21:31:43.357Z,2.97
2017-12-31T21:34:11.727Z,3.83
2017-12-31T21:36:40.096Z,3.40
2017-12-31T21:39:08.437Z,3.40
2017-12-31T21:41:36.783Z,3.97
2017-12-31T21:44:05.893Z,4.70
2017-12-31T21:46:34.262Z,6.50
2017-12-31T21:49:02.609Z,5.50
2017-12-31T21:51:30.646Z,7.83
2017-12-31T21:53:59.181Z,3.53
2017-12-31T21:56:28.292Z,5.53
2017-12-31T21:58:56.635Z,4.53
2017-12-31T22:01:25.772Z,4.47
2017-12-31T22:03:54.137Z,3.43
2017-12-31T22:06:22.464Z,5.53
2017-12-31T22:08:50.787Z,2.80
2017-12-31T22:11:19.276Z,4.33
2017-12-31T22:13:47.595Z,3.57
2017-12-31T22:16:16.716Z,3.60
2017-12-31T22:18:45.828Z,3.63
2017-12-31T22:21:14.168Z,4.60
2017-12-31T22:23:42.515Z,2.80
2017-12-31T22:26:10.864Z,3.93
2017-12-31T22:28:39.223Z,4.13
2017-12-31T22:31:08.328Z,4.50
2017-12-31T22:33:36.659Z,5.43
2017-12-31T22:36:05.003Z,3.90
2017-12-31T22:38:33.401Z,4.73
2017-12-31T22:41:01.740Z,3.87
2017-12-31T22:43:29.774Z,5.77
2017-12-31T22:45:58.124Z,3.07
2017-12-31T22:48:26.452Z,6.60
2017-12-31T22:50:54.785Z,6.50
2017-12-31T22:53:23.114Z,3.43
2017-12-31T22:55:51.464Z,3.90
2017-12-31T22:58:21.531Z,3.83
2017-12-31T23:00:50.650Z,4.53
2017-12-31T23:03:19.282Z,7.67
2017-12-31T23:05:47.629Z,33.93
2017-12-31T23:08:15.979Z,19.23
2017-12-31T23:10:44.149Z,22.93
2017-12-31T23:13:12.504Z,24.70
2017-12-31T23:15:40.860Z,25.23
2017-12-31T23:18:09.209Z,23.83
2017-12-31T23:20:38.144Z,17.97
2017-12-31T23:23:06.528Z,21.33
2017-12-31T23:25:34.885Z,23.90
2017-12-31T23:28:03.245Z,22.37
2017-12-31T23:30:32.348Z,20.97
2017-12-31T23:33:00.705Z,17.67
2017-12-31T23:35:29.803Z,19.17
2017-12-31T23:37:58.915Z,19.30
2017-12-31T23:40:27.078Z,15.43
2017-12-31T23:42:55.434Z,15.87
2017-12-31T23:45:23.770Z,11.07
2017-12-31T23:47:52.125Z,11.10
2017-12-31T23:50:20.466Z,9.03
2017-12-31T23:52:48.830Z,10.93
2017-12-31T23:55:17.182Z,8.47
2017-12-31T23:57:45.543Z,11.83
